sensor_id;sensor_type;location;lat;lon;timestamp;temperature;humidity
8436;DHT22;4255;48.730;9.156;2022-07-23T00:01:32;24.30;99.90
8436;DHT22;4255;48.730;9.156;2022-07-23T00:03:58;24.20;99.90
8436;DHT22;4255;48.730;9.156;2022-07-23T00:06:24;24.20;99.90
8436;DHT22;4255;48.730;9.156;2022-07-23T00:08:51;24.10;99.90
8436;DHT22;4255;48.730;9.156;2022-07-23T00:11:16;24.00;99.90
8436;DHT22;4255;48.730;9.156;2022-07-23T00:13:42;24.20;99.90
8436;DHT22;4255;48.730;9.156;2022-07-23T00:16:08;24.10;99.90
8436;DHT22;4255;48.730;9.156;2022-07-23T00:18:34;24.10;99.90
8436;DHT22;4255;48.730;9.156;2022-07-23T00:20:59;23.90;99.90
8436;DHT22;4255;48.730;9.156;2022-07-23T00:23:25;23.90;99.90
8436;DHT22;4255;48.730;9.156;2022-07-23T00:25:52;23.90;99.90
8436;DHT22;4255;48.730;9.156;2022-07-23T00:28:18;23.90;99.90
8436;DHT22;4255;48.730;9.156;2022-07-23T00:30:44;23.90;99.90
8436;DHT22;4255;48.730;9.156;2022-07-23T00:33:10;23.90;99.90
8436;DHT22;4255;48.730;9.156;2022-07-23T00:35:38;23.90;99.90
8436;DHT22;4255;48.730;9.156;2022-07-23T00:38:07;23.90;99.90
8436;DHT22;4255;48.730;9.156;2022-07-23T00:40:33;23.80;99.90
8436;DHT22;4255;48.730;9.156;2022-07-23T00:42:59;23.60;99.90
8436;DHT22;4255;48.730;9.156;2022-07-23T00:45:26;23.30;99.90
8436;DHT22;4255;48.730;9.156;2022-07-23T00:47:51;23.10;99.90
8436;DHT22;4255;48.730;9.156;2022-07-23T00:50:17;23.00;99.90
8436;DHT22;4255;48.730;9.156;2022-07-23T00:52:43;23.10;99.90
8436;DHT22;4255;48.730;9.156;2022-07-23T00:55:09;23.10;99.90
8436;DHT22;4255;48.730;9.156;2022-07-23T00:57:36;23.00;99.90
8436;DHT22;4255;48.730;9.156;2022-07-23T01:00:05;22.90;99.90
8436;DHT22;4255;48.730;9.156;2022-07-23T01:02:31;22.70;99.90
8436;DHT22;4255;48.730;9.156;2022-07-23T01:04:58;22.60;99.90
8436;DHT22;4255;48.730;9.156;2022-07-23T01:07:24;22.60;99.90
8436;DHT22;4255;48.730;9.156;2022-07-23T01:09:51;22.70;99.90
8436;DHT22;4255;48.730;9.156;2022-07-23T01:12:17;22.70;99.90
8436;DHT22;4255;48.730;9.156;2022-07-23T01:14:42;22.70;99.90
8436;DHT22;4255;48.730;9.156;2022-07-23T01:17:08;22.70;99.90
8436;DHT22;4255;48.730;9.156;2022-07-23T01:19:34;22.80;99.90
8436;DHT22;4255;48.730;9.156;2022-07-23T01:22:02;22.80;99.90
8436;DHT22;4255;48.730;9.156;2022-07-23T01:24:28;22.90;99.90
8436;DHT22;4255;48.730;9.156;2022-07-23T01:26:54;22.90;99.90
8436;DHT22;4255;48.730;9.156;2022-07-23T01:29:20;22.90;99.90
8436;DHT22;4255;48.730;9.156;2022-07-23T01:31:47;22.90;99.90
8436;DHT22;4255;48.730;9.156;2022-07-23T01:34:13;22.90;99.90
8436;DHT22;4255;48.730;9.156;2022-07-23T01:36:39;23.00;99.90
8436;DHT22;4255;48.730;9.156;2022-07-23T01:39:06;23.10;99.90
8436;DHT22;4255;48.730;9.156;2022-07-23T01:41:32;23.30;99.90
8436;DHT22;4255;48.730;9.156;2022-07-23T01:43:58;23.30;99.90
8436;DHT22;4255;48.730;9.156;2022-07-23T01:46:24;23.20;99.90
8436;DHT22;4255;48.730;9.156;2022-07-23T01:48:50;23.00;99.90
8436;DHT22;4255;48.730;9.156;2022-07-23T01:51:15;23.10;99.90
8436;DHT22;4255;48.730;9.156;2022-07-23T01:53:41;23.20;99.90
8436;DHT22;4255;48.730;9.156;2022-07-23T01:56:07;23.20;99.90
8436;DHT22;4255;48.730;9.156;2022-07-23T01:58:32;23.00;99.90
8436;DHT22;4255;48.730;9.156;2022-07-23T02:00:58;23.00;99.90
8436;DHT22;4255;48.730;9.156;2022-07-23T02:03:25;23.00;99.90
8436;DHT22;4255;48.730;9.156;2022-07-23T02:05:50;23.00;99.90
8436;DHT22;4255;48.730;9.156;2022-07-23T02:08:17;23.00;99.90
8436;DHT22;4255;48.730;9.156;2022-07-23T02:10:43;23.30;99.90
8436;DHT22;4255;48.730;9.156;2022-07-23T02:13:09;23.30;99.90
8436;DHT22;4255;48.730;9.156;2022-07-23T02:15:35;23.20;99.90
8436;DHT22;4255;48.730;9.156;2022-07-23T02:18:01;23.00;99.90
8436;DHT22;4255;48.730;9.156;2022-07-23T02:20:27;22.80;99.90
8436;DHT22;4255;48.730;9.156;2022-07-23T02:22:52;22.90;99.90
8436;DHT22;4255;48.730;9.156;2022-07-23T02:25:18;22.80;99.90
8436;DHT22;4255;48.730;9.156;2022-07-23T02:27:44;22.80;99.90
8436;DHT22;4255;48.730;9.156;2022-07-23T02:30:10;22.70;99.90
8436;DHT22;4255;48.730;9.156;2022-07-23T02:32:36;22.80;99.90
8436;DHT22;4255;48.730;9.156;2022-07-23T02:35:03;22.80;99.90
8436;DHT22;4255;48.730;9.156;2022-07-23T02:37:28;22.90;99.90
8436;DHT22;4255;48.730;9.156;2022-07-23T02:39:54;22.90;99.90
8436;DHT22;4255;48.730;9.156;2022-07-23T02:42:20;23.00;99.90
8436;DHT22;4255;48.730;9.156;2022-07-23T02:44:46;22.90;99.90
8436;DHT22;4255;48.730;9.156;2022-07-23T02:47:11;22.80;99.90
8436;DHT22;4255;48.730;9.156;2022-07-23T02:49:37;22.50;99.90
8436;DHT22;4255;48.730;9.156;2022-07-23T02:52:03;22.50;99.90
8436;DHT22;4255;48.730;9.156;2022-07-23T02:54:29;22.30;99.90
8436;DHT22;4255;48.730;9.156;2022-07-23T02:56:54;22.30;99.90
8436;DHT22;4255;48.730;9.156;2022-07-23T02:59:20;22.20;99.90
8436;DHT22;4255;48.730;9.156;2022-07-23T03:01:46;22.30;99.90
8436;DHT22;4255;48.730;9.156;2022-07-23T03:04:12;22.30;99.90
8436;DHT22;4255;48.730;9.156;2022-07-23T03:06:38;22.50;99.90
8436;DHT22;4255;48.730;9.156;2022-07-23T03:09:04;22.50;99.90
8436;DHT22;4255;48.730;9.156;2022-07-23T03:11:30;22.40;99.90
8436;DHT22;4255;48.730;9.156;2022-07-23T03:13:56;22.50;99.90
8436;DHT22;4255;48.730;9.156;2022-07-23T03:16:22;22.60;99.90
8436;DHT22;4255;48.730;9.156;2022-07-23T03:18:48;22.80;99.90
8436;DHT22;4255;48.730;9.156;2022-07-23T03:21:13;22.90;99.90
8436;DHT22;4255;48.730;9.156;2022-07-23T03:23:39;23.00;99.90
8436;DHT22;4255;48.730;9.156;2022-07-23T03:26:05;23.00;99.90
8436;DHT22;4255;48.730;9.156;2022-07-23T03:28:30;23.10;99.90
8436;DHT22;4255;48.730;9.156;2022-07-23T03:30:56;23.10;99.90
8436;DHT22;4255;48.730;9.156;2022-07-23T03:33:22;23.20;99.90
8436;DHT22;4255;48.730;9.156;2022-07-23T03:35:48;23.30;99.90
8436;DHT22;4255;48.730;9.156;2022-07-23T03:38:14;23.40;99.90
8436;DHT22;4255;48.730;9.156;2022-07-23T03:40:40;23.50;99.90
8436;DHT22;4255;48.730;9.156;2022-07-23T03:43:06;23.40;99.90
8436;DHT22;4255;48.730;9.156;2022-07-23T03:45:32;23.30;99.90
8436;DHT22;4255;48.730;9.156;2022-07-23T03:47:57;23.30;99.90
8436;DHT22;4255;48.730;9.156;2022-07-23T03:50:23;23.20;99.90
8436;DHT22;4255;48.730;9.156;2022-07-23T03:52:49;23.10;99.90
8436;DHT22;4255;48.730;9.156;2022-07-23T03:55:15;23.00;99.90
8436;DHT22;4255;48.730;9.156;2022-07-23T03:57:41;23.00;99.90
8436;DHT22;4255;48.730;9.156;2022-07-23T04:00:08;23.00;99.90
8436;DHT22;4255;48.730;9.156;2022-07-23T04:02:38;23.10;99.90
8436;DHT22;4255;48.730;9.156;2022-07-23T04:05:04;23.00;99.90
8436;DHT22;4255;48.730;9.156;2022-07-23T04:07:30;23.00;99.90
8436;DHT22;4255;48.730;9.156;2022-07-23T04:09:56;22.90;99.90
8436;DHT22;4255;48.730;9.156;2022-07-23T04:12:22;22.90;99.90
8436;DHT22;4255;48.730;9.156;2022-07-23T04:14:47;22.90;99.90
8436;DHT22;4255;48.730;9.156;2022-07-23T04:17:13;23.00;99.90
8436;DHT22;4255;48.730;9.156;2022-07-23T04:19:39;23.00;99.90
8436;DHT22;4255;48.730;9.156;2022-07-23T04:22:09;23.20;99.90
8436;DHT22;4255;48.730;9.156;2022-07-23T04:24:35;23.30;99.90
8436;DHT22;4255;48.730;9.156;2022-07-23T04:27:01;23.30;99.90
8436;DHT22;4255;48.730;9.156;2022-07-23T04:29:27;23.20;99.90
8436;DHT22;4255;48.730;9.156;2022-07-23T04:31:52;23.30;99.90
8436;DHT22;4255;48.730;9.156;2022-07-23T04:34:18;23.30;99.90
8436;DHT22;4255;48.730;9.156;2022-07-23T04:36:44;23.20;99.90
8436;DHT22;4255;48.730;9.156;2022-07-23T04:39:09;23.30;99.90
8436;DHT22;4255;48.730;9.156;2022-07-23T04:41:35;23.20;99.90
8436;DHT22;4255;48.730;9.156;2022-07-23T04:44:01;23.30;99.90
8436;DHT22;4255;48.730;9.156;2022-07-23T04:46:27;23.30;99.90
8436;DHT22;4255;48.730;9.156;2022-07-23T04:48:53;23.30;99.90
8436;DHT22;4255;48.730;9.156;2022-07-23T04:51:19;23.30;99.90
8436;DHT22;4255;48.730;9.156;2022-07-23T04:53:45;23.40;99.90
8436;DHT22;4255;48.730;9.156;2022-07-23T04:56:10;23.40;99.90
8436;DHT22;4255;48.730;9.156;2022-07-23T04:58:36;23.40;99.90
8436;DHT22;4255;48.730;9.156;2022-07-23T05:01:02;23.40;99.90
8436;DHT22;4255;48.730;9.156;2022-07-23T05:03:28;23.40;99.90
8436;DHT22;4255;48.730;9.156;2022-07-23T05:05:53;23.50;99.90
8436;DHT22;4255;48.730;9.156;2022-07-23T05:08:19;23.60;99.90
8436;DHT22;4255;48.730;9.156;2022-07-23T05:10:45;23.70;99.90
8436;DHT22;4255;48.730;9.156;2022-07-23T05:13:10;23.80;99.90
8436;DHT22;4255;48.730;9.156;2022-07-23T05:15:36;23.90;99.90
8436;DHT22;4255;48.730;9.156;2022-07-23T05:18:02;23.90;99.90
8436;DHT22;4255;48.730;9.156;2022-07-23T05:20:27;24.00;99.90
8436;DHT22;4255;48.730;9.156;2022-07-23T05:22:53;24.10;99.90
8436;DHT22;4255;48.730;9.156;2022-07-23T05:25:19;24.20;99.90
8436;DHT22;4255;48.730;9.156;2022-07-23T05:27:44;24.20;99.90
8436;DHT22;4255;48.730;9.156;2022-07-23T05:30:11;24.30;99.90
8436;DHT22;4255;48.730;9.156;2022-07-23T05:32:36;24.30;99.90
8436;DHT22;4255;48.730;9.156;2022-07-23T05:35:06;24.30;99.90
8436;DHT22;4255;48.730;9.156;2022-07-23T05:37:32;24.50;99.90
8436;DHT22;4255;48.730;9.156;2022-07-23T05:40:05;24.50;99.90
8436;DHT22;4255;48.730;9.156;2022-07-23T05:42:33;24.40;99.90
8436;DHT22;4255;48.730;9.156;2022-07-23T05:44:59;24.50;99.90
8436;DHT22;4255;48.730;9.156;2022-07-23T05:47:24;24.60;99.90
8436;DHT22;4255;48.730;9.156;2022-07-23T05:49:50;24.60;99.90
8436;DHT22;4255;48.730;9.156;2022-07-23T05:52:16;24.70;99.90
8436;DHT22;4255;48.730;9.156;2022-07-23T05:54:41;24.70;99.90
8436;DHT22;4255;48.730;9.156;2022-07-23T05:57:07;24.80;99.90
8436;DHT22;4255;48.730;9.156;2022-07-23T05:59:33;24.80;99.90
8436;DHT22;4255;48.730;9.156;2022-07-23T06:01:58;24.70;99.90
8436;DHT22;4255;48.730;9.156;2022-07-23T06:04:24;24.70;99.90
8436;DHT22;4255;48.730;9.156;2022-07-23T06:06:50;24.70;99.90
8436;DHT22;4255;48.730;9.156;2022-07-23T06:09:15;24.80;99.90
8436;DHT22;4255;48.730;9.156;2022-07-23T06:11:41;24.80;99.90
8436;DHT22;4255;48.730;9.156;2022-07-23T06:14:07;24.90;99.90
8436;DHT22;4255;48.730;9.156;2022-07-23T06:16:32;25.00;99.90
8436;DHT22;4255;48.730;9.156;2022-07-23T06:18:58;25.00;99.90
8436;DHT22;4255;48.730;9.156;2022-07-23T06:21:23;25.20;99.90
8436;DHT22;4255;48.730;9.156;2022-07-23T06:23:49;25.20;99.90
8436;DHT22;4255;48.730;9.156;2022-07-23T06:26:15;25.30;99.90
8436;DHT22;4255;48.730;9.156;2022-07-23T06:28:40;25.20;99.90
8436;DHT22;4255;48.730;9.156;2022-07-23T06:31:06;25.40;99.90
8436;DHT22;4255;48.730;9.156;2022-07-23T06:33:32;25.40;99.90
8436;DHT22;4255;48.730;9.156;2022-07-23T06:35:57;25.50;99.90
8436;DHT22;4255;48.730;9.156;2022-07-23T06:38:23;25.30;99.90
8436;DHT22;4255;48.730;9.156;2022-07-23T06:40:48;24.90;99.90
8436;DHT22;4255;48.730;9.156;2022-07-23T06:43:14;24.70;99.90
8436;DHT22;4255;48.730;9.156;2022-07-23T06:45:40;24.40;99.90
8436;DHT22;4255;48.730;9.156;2022-07-23T06:48:05;24.50;99.90
8436;DHT22;4255;48.730;9.156;2022-07-23T06:50:31;24.50;99.90
8436;DHT22;4255;48.730;9.156;2022-07-23T06:52:57;24.40;99.90
8436;DHT22;4255;48.730;9.156;2022-07-23T06:55:23;24.50;99.90
8436;DHT22;4255;48.730;9.156;2022-07-23T06:57:48;24.60;99.90
8436;DHT22;4255;48.730;9.156;2022-07-23T07:00:14;24.60;99.90
8436;DHT22;4255;48.730;9.156;2022-07-23T07:02:40;24.50;99.90
8436;DHT22;4255;48.730;9.156;2022-07-23T07:05:06;24.40;99.90
8436;DHT22;4255;48.730;9.156;2022-07-23T07:07:32;24.40;99.90
8436;DHT22;4255;48.730;9.156;2022-07-23T07:09:57;24.40;99.90
8436;DHT22;4255;48.730;9.156;2022-07-23T07:12:23;24.50;99.90
8436;DHT22;4255;48.730;9.156;2022-07-23T07:14:49;24.50;99.90
8436;DHT22;4255;48.730;9.156;2022-07-23T07:17:14;24.70;99.90
8436;DHT22;4255;48.730;9.156;2022-07-23T07:19:40;24.60;99.90
8436;DHT22;4255;48.730;9.156;2022-07-23T07:22:06;24.20;99.90
8436;DHT22;4255;48.730;9.156;2022-07-23T07:24:32;23.90;99.90
8436;DHT22;4255;48.730;9.156;2022-07-23T07:26:58;23.50;99.90
8436;DHT22;4255;48.730;9.156;2022-07-23T07:29:23;23.50;99.90
8436;DHT22;4255;48.730;9.156;2022-07-23T07:31:49;23.40;99.90
8436;DHT22;4255;48.730;9.156;2022-07-23T07:34:15;23.50;99.90
8436;DHT22;4255;48.730;9.156;2022-07-23T07:36:40;23.60;99.90
8436;DHT22;4255;48.730;9.156;2022-07-23T07:39:06;23.80;99.90
8436;DHT22;4255;48.730;9.156;2022-07-23T07:41:32;24.00;99.90
8436;DHT22;4255;48.730;9.156;2022-07-23T07:43:57;24.20;99.90
8436;DHT22;4255;48.730;9.156;2022-07-23T07:46:23;24.30;99.90
8436;DHT22;4255;48.730;9.156;2022-07-23T07:48:50;24.40;99.90
8436;DHT22;4255;48.730;9.156;2022-07-23T07:51:16;24.70;99.90
8436;DHT22;4255;48.730;9.156;2022-07-23T07:53:42;24.80;99.90
8436;DHT22;4255;48.730;9.156;2022-07-23T07:56:07;25.20;99.90
8436;DHT22;4255;48.730;9.156;2022-07-23T07:58:33;25.30;99.90
8436;DHT22;4255;48.730;9.156;2022-07-23T08:00:58;25.30;99.90
8436;DHT22;4255;48.730;9.156;2022-07-23T08:03:25;24.90;99.90
8436;DHT22;4255;48.730;9.156;2022-07-23T08:05:51;24.70;99.90
8436;DHT22;4255;48.730;9.156;2022-07-23T08:08:17;24.90;99.90
8436;DHT22;4255;48.730;9.156;2022-07-23T08:10:43;24.90;99.90
8436;DHT22;4255;48.730;9.156;2022-07-23T08:13:13;24.60;99.90
8436;DHT22;4255;48.730;9.156;2022-07-23T08:15:40;24.50;99.90
8436;DHT22;4255;48.730;9.156;2022-07-23T08:18:05;24.40;99.90
8436;DHT22;4255;48.730;9.156;2022-07-23T08:20:31;24.10;99.90
8436;DHT22;4255;48.730;9.156;2022-07-23T08:23:04;24.10;99.90
8436;DHT22;4255;48.730;9.156;2022-07-23T08:25:31;24.10;99.90
8436;DHT22;4255;48.730;9.156;2022-07-23T08:27:58;24.10;99.90
8436;DHT22;4255;48.730;9.156;2022-07-23T08:30:24;24.30;99.90
8436;DHT22;4255;48.730;9.156;2022-07-23T08:32:57;24.30;99.90
8436;DHT22;4255;48.730;9.156;2022-07-23T08:35:34;24.50;99.90
8436;DHT22;4255;48.730;9.156;2022-07-23T08:38:03;24.70;99.90
8436;DHT22;4255;48.730;9.156;2022-07-23T08:40:31;24.60;99.90
8436;DHT22;4255;48.730;9.156;2022-07-23T08:42:57;25.00;99.90
8436;DHT22;4255;48.730;9.156;2022-07-23T08:45:24;25.40;99.90
8436;DHT22;4255;48.730;9.156;2022-07-23T08:47:55;25.90;99.90
8436;DHT22;4255;48.730;9.156;2022-07-23T08:50:23;26.00;99.90
8436;DHT22;4255;48.730;9.156;2022-07-23T08:52:50;26.10;99.90
8436;DHT22;4255;48.730;9.156;2022-07-23T08:55:21;25.90;99.90
8436;DHT22;4255;48.730;9.156;2022-07-23T08:57:52;26.00;99.90
8436;DHT22;4255;48.730;9.156;2022-07-23T09:00:21;26.20;99.90
8436;DHT22;4255;48.730;9.156;2022-07-23T09:02:47;26.30;99.90
8436;DHT22;4255;48.730;9.156;2022-07-23T09:05:14;26.70;99.90
8436;DHT22;4255;48.730;9.156;2022-07-23T09:08:09;27.20;99.90
8436;DHT22;4255;48.730;9.156;2022-07-23T09:11:02;27.70;99.90
8436;DHT22;4255;48.730;9.156;2022-07-23T09:13:38;27.80;99.90
8436;DHT22;4255;48.730;9.156;2022-07-23T09:21:19;28.90;99.90
8436;DHT22;4255;48.730;9.156;2022-07-23T09:26:31;29.20;99.90
8436;DHT22;4255;48.730;9.156;2022-07-23T09:31:24;28.60;99.90
8436;DHT22;4255;48.730;9.156;2022-07-23T09:33:50;29.00;99.90
8436;DHT22;4255;48.730;9.156;2022-07-23T09:36:18;29.20;99.90
8436;DHT22;4255;48.730;9.156;2022-07-23T09:38:52;29.10;99.90
8436;DHT22;4255;48.730;9.156;2022-07-23T09:41:18;28.70;99.90
8436;DHT22;4255;48.730;9.156;2022-07-23T09:43:44;28.30;99.90
8436;DHT22;4255;48.730;9.156;2022-07-23T09:46:26;28.30;99.90
8436;DHT22;4255;48.730;9.156;2022-07-23T09:48:53;28.50;99.90
8436;DHT22;4255;48.730;9.156;2022-07-23T09:51:20;28.70;99.90
8436;DHT22;4255;48.730;9.156;2022-07-23T09:54:01;29.00;99.90
8436;DHT22;4255;48.730;9.156;2022-07-23T09:56:28;28.70;99.90
8436;DHT22;4255;48.730;9.156;2022-07-23T09:58:54;28.70;99.90
8436;DHT22;4255;48.730;9.156;2022-07-23T10:01:40;28.50;99.90
8436;DHT22;4255;48.730;9.156;2022-07-23T10:04:06;29.00;99.90
8436;DHT22;4255;48.730;9.156;2022-07-23T10:06:33;29.20;99.90
8436;DHT22;4255;48.730;9.156;2022-07-23T10:09:01;29.00;99.90
8436;DHT22;4255;48.730;9.156;2022-07-23T10:11:27;28.60;99.90
8436;DHT22;4255;48.730;9.156;2022-07-23T10:13:54;28.80;99.90
8436;DHT22;4255;48.730;9.156;2022-07-23T10:16:21;28.70;99.90
8436;DHT22;4255;48.730;9.156;2022-07-23T10:18:47;28.60;99.90
8436;DHT22;4255;48.730;9.156;2022-07-23T10:21:39;28.40;99.90
8436;DHT22;4255;48.730;9.156;2022-07-23T10:29:46;29.60;99.90
8436;DHT22;4255;48.730;9.156;2022-07-23T10:32:36;29.90;99.90
8436;DHT22;4255;48.730;9.156;2022-07-23T10:35:08;30.20;99.90
8436;DHT22;4255;48.730;9.156;2022-07-23T10:37:49;29.90;99.90
8436;DHT22;4255;48.730;9.156;2022-07-23T10:40:17;29.60;99.90
8436;DHT22;4255;48.730;9.156;2022-07-23T10:42:44;29.10;99.90
8436;DHT22;4255;48.730;9.156;2022-07-23T10:45:31;28.80;99.90
8436;DHT22;4255;48.730;9.156;2022-07-23T10:48:17;28.70;99.90
8436;DHT22;4255;48.730;9.156;2022-07-23T10:50:44;28.80;99.90
8436;DHT22;4255;48.730;9.156;2022-07-23T10:56:15;29.30;99.90
8436;DHT22;4255;48.730;9.156;2022-07-23T10:58:48;29.60;99.90
8436;DHT22;4255;48.730;9.156;2022-07-23T11:01:35;29.80;99.90
8436;DHT22;4255;48.730;9.156;2022-07-23T11:04:02;30.00;99.90
8436;DHT22;4255;48.730;9.156;2022-07-23T11:09:43;29.80;99.90
8436;DHT22;4255;48.730;9.156;2022-07-23T11:15:13;30.00;99.90
8436;DHT22;4255;48.730;9.156;2022-07-23T11:20:19;30.30;99.90
8436;DHT22;4255;48.730;9.156;2022-07-23T11:25:32;31.00;99.50
8436;DHT22;4255;48.730;9.156;2022-07-23T11:28:17;31.40;98.70
8436;DHT22;4255;48.730;9.156;2022-07-23T11:30:46;31.40;97.80
8436;DHT22;4255;48.730;9.156;2022-07-23T11:35:46;30.10;99.00
8436;DHT22;4255;48.730;9.156;2022-07-23T11:38:18;29.90;99.30
8436;DHT22;4255;48.730;9.156;2022-07-23T11:40:47;29.80;99.60
8436;DHT22;4255;48.730;9.156;2022-07-23T11:43:13;30.10;99.90
8436;DHT22;4255;48.730;9.156;2022-07-23T11:45:47;30.20;98.80
8436;DHT22;4255;48.730;9.156;2022-07-23T11:48:25;30.40;98.60
8436;DHT22;4255;48.730;9.156;2022-07-23T11:50:53;30.60;98.10
8436;DHT22;4255;48.730;9.156;2022-07-23T11:53:23;30.70;97.00
8436;DHT22;4255;48.730;9.156;2022-07-23T11:55:49;31.20;97.00
8436;DHT22;4255;48.730;9.156;2022-07-23T11:58:15;31.70;96.40
8436;DHT22;4255;48.730;9.156;2022-07-23T12:00:41;32.10;96.20
8436;DHT22;4255;48.730;9.156;2022-07-23T12:03:07;32.00;94.90
8436;DHT22;4255;48.730;9.156;2022-07-23T12:05:35;31.80;95.70
8436;DHT22;4255;48.730;9.156;2022-07-23T12:08:04;31.40;95.40
8436;DHT22;4255;48.730;9.156;2022-07-23T12:10:39;31.10;95.30
8436;DHT22;4255;48.730;9.156;2022-07-23T12:13:07;31.00;94.90
8436;DHT22;4255;48.730;9.156;2022-07-23T12:15:44;31.30;95.10
8436;DHT22;4255;48.730;9.156;2022-07-23T12:18:13;30.70;95.50
8436;DHT22;4255;48.730;9.156;2022-07-23T12:20:44;30.20;96.50
8436;DHT22;4255;48.730;9.156;2022-07-23T12:23:13;29.80;97.40
8436;DHT22;4255;48.730;9.156;2022-07-23T12:25:45;29.60;97.30
8436;DHT22;4255;48.730;9.156;2022-07-23T12:28:16;29.80;98.70
8436;DHT22;4255;48.730;9.156;2022-07-23T12:33:14;30.20;98.10
8436;DHT22;4255;48.730;9.156;2022-07-23T12:35:45;30.30;98.60
8436;DHT22;4255;48.730;9.156;2022-07-23T12:38:14;30.50;97.90
8436;DHT22;4255;48.730;9.156;2022-07-23T12:40:54;30.90;97.50
8436;DHT22;4255;48.730;9.156;2022-07-23T12:43:24;30.50;95.60
8436;DHT22;4255;48.730;9.156;2022-07-23T12:46:01;30.30;95.70
8436;DHT22;4255;48.730;9.156;2022-07-23T12:48:29;30.00;96.20
8436;DHT22;4255;48.730;9.156;2022-07-23T12:50:59;30.20;96.80
8436;DHT22;4255;48.730;9.156;2022-07-23T12:56:15;30.70;96.10
8436;DHT22;4255;48.730;9.156;2022-07-23T12:58:46;30.50;96.70
8436;DHT22;4255;48.730;9.156;2022-07-23T13:06:34;30.00;97.30
8436;DHT22;4255;48.730;9.156;2022-07-23T13:09:00;30.10;96.40
8436;DHT22;4255;48.730;9.156;2022-07-23T13:11:26;30.30;97.40
8436;DHT22;4255;48.730;9.156;2022-07-23T13:13:52;30.30;96.20
8436;DHT22;4255;48.730;9.156;2022-07-23T13:16:17;30.40;96.70
8436;DHT22;4255;48.730;9.156;2022-07-23T13:18:43;30.30;96.40
8436;DHT22;4255;48.730;9.156;2022-07-23T13:21:09;30.30;96.30
8436;DHT22;4255;48.730;9.156;2022-07-23T13:23:35;30.00;95.60
8436;DHT22;4255;48.730;9.156;2022-07-23T13:26:02;30.00;95.70
8436;DHT22;4255;48.730;9.156;2022-07-23T13:28:28;30.10;95.70
8436;DHT22;4255;48.730;9.156;2022-07-23T13:30:53;30.50;95.70
8436;DHT22;4255;48.730;9.156;2022-07-23T13:33:20;30.50;95.00
8436;DHT22;4255;48.730;9.156;2022-07-23T13:35:47;30.20;95.00
8436;DHT22;4255;48.730;9.156;2022-07-23T13:38:13;29.90;95.20
8436;DHT22;4255;48.730;9.156;2022-07-23T13:40:41;29.80;96.00
8436;DHT22;4255;48.730;9.156;2022-07-23T13:43:12;29.70;95.30
8436;DHT22;4255;48.730;9.156;2022-07-23T13:45:39;29.40;95.50
8436;DHT22;4255;48.730;9.156;2022-07-23T13:48:06;29.10;96.40
8436;DHT22;4255;48.730;9.156;2022-07-23T13:50:33;29.10;96.20
8436;DHT22;4255;48.730;9.156;2022-07-23T13:53:10;29.30;95.50
8436;DHT22;4255;48.730;9.156;2022-07-23T13:55:37;29.40;95.70
8436;DHT22;4255;48.730;9.156;2022-07-23T13:58:03;29.50;96.10
8436;DHT22;4255;48.730;9.156;2022-07-23T14:00:30;29.60;96.00
8436;DHT22;4255;48.730;9.156;2022-07-23T14:02:57;29.80;95.80
8436;DHT22;4255;48.730;9.156;2022-07-23T14:05:23;30.00;96.60
8436;DHT22;4255;48.730;9.156;2022-07-23T14:07:49;29.90;95.30
8436;DHT22;4255;48.730;9.156;2022-07-23T14:10:17;30.10;95.90
8436;DHT22;4255;48.730;9.156;2022-07-23T14:12:44;30.10;94.80
8436;DHT22;4255;48.730;9.156;2022-07-23T14:15:10;30.10;94.60
8436;DHT22;4255;48.730;9.156;2022-07-23T14:17:37;30.20;94.40
8436;DHT22;4255;48.730;9.156;2022-07-23T14:20:04;30.10;94.50
8436;DHT22;4255;48.730;9.156;2022-07-23T14:22:30;30.20;95.20
8436;DHT22;4255;48.730;9.156;2022-07-23T14:24:56;30.10;93.70
8436;DHT22;4255;48.730;9.156;2022-07-23T14:27:24;30.10;93.90
8436;DHT22;4255;48.730;9.156;2022-07-23T14:29:49;30.30;93.80
8436;DHT22;4255;48.730;9.156;2022-07-23T14:32:15;30.60;93.50
8436;DHT22;4255;48.730;9.156;2022-07-23T14:34:41;30.70;93.00
8436;DHT22;4255;48.730;9.156;2022-07-23T14:37:07;31.20;92.60
8436;DHT22;4255;48.730;9.156;2022-07-23T14:39:32;31.40;91.80
8436;DHT22;4255;48.730;9.156;2022-07-23T14:41:58;31.50;92.00
8436;DHT22;4255;48.730;9.156;2022-07-23T14:44:24;31.30;92.40
8436;DHT22;4255;48.730;9.156;2022-07-23T14:46:49;31.30;91.90
8436;DHT22;4255;48.730;9.156;2022-07-23T14:49:15;31.30;90.00
8436;DHT22;4255;48.730;9.156;2022-07-23T14:51:41;31.50;88.90
8436;DHT22;4255;48.730;9.156;2022-07-23T14:54:07;31.40;88.40
8436;DHT22;4255;48.730;9.156;2022-07-23T14:56:33;31.50;88.10
8436;DHT22;4255;48.730;9.156;2022-07-23T14:59:02;31.30;88.60
8436;DHT22;4255;48.730;9.156;2022-07-23T15:01:28;31.30;87.90
8436;DHT22;4255;48.730;9.156;2022-07-23T15:03:54;31.20;87.70
8436;DHT22;4255;48.730;9.156;2022-07-23T15:06:19;31.30;89.60
8436;DHT22;4255;48.730;9.156;2022-07-23T15:08:45;30.70;87.70
8436;DHT22;4255;48.730;9.156;2022-07-23T15:11:10;30.50;87.60
8436;DHT22;4255;48.730;9.156;2022-07-23T15:13:37;30.60;88.40
8436;DHT22;4255;48.730;9.156;2022-07-23T15:16:03;30.50;88.10
8436;DHT22;4255;48.730;9.156;2022-07-23T15:18:30;30.30;87.90
8436;DHT22;4255;48.730;9.156;2022-07-23T15:20:56;30.40;88.50
8436;DHT22;4255;48.730;9.156;2022-07-23T15:23:21;30.50;90.00
8436;DHT22;4255;48.730;9.156;2022-07-23T15:25:47;30.70;88.90
8436;DHT22;4255;48.730;9.156;2022-07-23T15:28:13;30.50;88.10
8436;DHT22;4255;48.730;9.156;2022-07-23T15:30:38;30.30;88.90
8436;DHT22;4255;48.730;9.156;2022-07-23T15:33:04;30.00;89.70
8436;DHT22;4255;48.730;9.156;2022-07-23T15:35:31;29.80;90.20
8436;DHT22;4255;48.730;9.156;2022-07-23T15:37:57;29.80;89.80
8436;DHT22;4255;48.730;9.156;2022-07-23T15:40:22;30.20;89.40
8436;DHT22;4255;48.730;9.156;2022-07-23T15:42:48;30.00;89.50
8436;DHT22;4255;48.730;9.156;2022-07-23T15:45:13;29.90;89.10
8436;DHT22;4255;48.730;9.156;2022-07-23T15:47:40;29.80;90.10
8436;DHT22;4255;48.730;9.156;2022-07-23T15:50:06;29.90;90.40
8436;DHT22;4255;48.730;9.156;2022-07-23T15:52:32;30.10;90.70
8436;DHT22;4255;48.730;9.156;2022-07-23T15:54:58;30.50;90.70
8436;DHT22;4255;48.730;9.156;2022-07-23T15:57:23;30.60;91.20
8436;DHT22;4255;48.730;9.156;2022-07-23T15:59:49;30.60;89.80
8436;DHT22;4255;48.730;9.156;2022-07-23T16:02:15;30.60;90.20
8436;DHT22;4255;48.730;9.156;2022-07-23T16:04:42;30.60;89.50
8436;DHT22;4255;48.730;9.156;2022-07-23T16:07:07;30.30;89.80
8436;DHT22;4255;48.730;9.156;2022-07-23T16:09:33;30.30;90.30
8436;DHT22;4255;48.730;9.156;2022-07-23T16:12:00;30.20;90.50
8436;DHT22;4255;48.730;9.156;2022-07-23T16:14:25;30.20;90.70
8436;DHT22;4255;48.730;9.156;2022-07-23T16:16:51;30.10;90.40
8436;DHT22;4255;48.730;9.156;2022-07-23T16:19:17;30.00;90.60
8436;DHT22;4255;48.730;9.156;2022-07-23T16:21:42;29.90;90.90
8436;DHT22;4255;48.730;9.156;2022-07-23T16:24:08;29.80;90.80
8436;DHT22;4255;48.730;9.156;2022-07-23T16:26:33;30.10;91.30
8436;DHT22;4255;48.730;9.156;2022-07-23T16:28:59;30.50;90.80
8436;DHT22;4255;48.730;9.156;2022-07-23T16:31:25;30.70;90.20
8436;DHT22;4255;48.730;9.156;2022-07-23T16:33:51;30.20;90.40
8436;DHT22;4255;48.730;9.156;2022-07-23T16:36:17;30.30;91.20
8436;DHT22;4255;48.730;9.156;2022-07-23T16:38:44;30.30;90.60
8436;DHT22;4255;48.730;9.156;2022-07-23T16:41:10;30.40;89.90
8436;DHT22;4255;48.730;9.156;2022-07-23T16:43:36;30.20;90.10
8436;DHT22;4255;48.730;9.156;2022-07-23T16:46:03;30.00;90.60